Time;durP1;ratioP1;P1;durP2;ratioP2;P2;SDS_P1;SDS_P2;PMS_P1;PMS_P2;Temp;Humidity;BMP_temperature;BMP_pressure;BME280_temperature;BME280_humidity;BME280_pressure;Samples;Min_cycle;Max_cycle;Signal;HPM_P1;HPM_P2
2022/07/10 00:00:03;;;;;;;0.40;0.20;;;;;;;18.29;85.15;101021.16;4969655;28;20972;-52
2022/07/10 00:02:30;;;;;;;0.40;0.30;;;;;;;18.22;85.71;101028.66;4967648;28;20534;-53
2022/07/10 00:04:57;;;;;;;0.40;0.20;;;;;;;18.17;85.42;101025.31;4970630;28;20496;-53
2022/07/10 00:07:23;;;;;;;0.40;0.20;;;;;;;18.31;84.99;101021.97;4956350;28;21016;-52
2022/07/10 00:09:49;;;;;;;0.40;0.20;;;;;;;17.99;85.90;101029.78;4970064;28;20952;-52
2022/07/10 00:12:16;;;;;;;0.40;0.20;;;;;;;18.00;86.17;101030.63;4974901;28;20461;-51
2022/07/10 00:14:42;;;;;;;0.40;0.20;;;;;;;18.04;86.69;101029.53;4962050;28;20455;-52
2022/07/10 00:17:09;;;;;;;0.40;0.20;;;;;;;17.90;86.84;101029.31;4973503;28;21018;-52
2022/07/10 00:19:35;;;;;;;0.40;0.30;;;;;;;17.68;87.51;101030.34;4962226;28;20463;-52
2022/07/10 00:22:02;;;;;;;0.40;0.20;;;;;;;17.75;87.57;101025.53;4966407;28;20455;-52
2022/07/10 00:24:28;;;;;;;0.40;0.20;;;;;;;17.67;86.26;101031.22;4970871;28;20504;-53
2022/07/10 00:26:55;;;;;;;0.40;0.20;;;;;;;18.01;84.28;101035.06;4975104;28;20553;-52
2022/07/10 00:29:21;;;;;;;0.40;0.20;;;;;;;17.98;84.63;101029.84;4974885;28;20466;-52
2022/07/10 00:31:48;;;;;;;0.40;0.20;;;;;;;17.88;85.32;101034.78;4974057;28;20979;-51
2022/07/10 00:34:14;;;;;;;0.40;0.20;;;;;;;17.79;84.78;101035.19;4964212;28;20477;-52
2022/07/10 00:36:41;;;;;;;0.40;0.20;;;;;;;17.78;85.24;101036.16;4963845;28;20952;-52
2022/07/10 00:39:07;;;;;;;0.40;0.20;;;;;;;17.69;85.83;101031.22;4974731;28;20470;-52
2022/07/10 00:41:34;;;;;;;0.40;0.20;;;;;;;17.72;86.43;101031.06;4966023;28;20466;-52
2022/07/10 00:44:01;;;;;;;0.40;0.20;;;;;;;17.76;85.19;101027.28;4967900;28;20465;-51
2022/07/10 00:46:29;;;;;;;0.40;0.20;;;;;;;17.88;85.07;101034.78;4964467;28;20533;-53
2022/07/10 00:48:57;;;;;;;0.40;0.20;;;;;;;17.89;83.92;101044.59;4971437;28;20834;-52
2022/07/10 00:51:28;;;;;;;0.40;0.20;;;;;;;17.66;85.02;101039.38;4968262;28;20454;-52
2022/07/10 00:53:56;;;;;;;0.40;0.20;;;;;;;17.55;85.16;101039.00;4978756;28;20446;-53
2022/07/10 00:56:24;;;;;;;0.40;0.20;;;;;;;17.59;84.57;101038.78;4963547;28;20465;-52
2022/07/10 00:58:51;;;;;;;0.40;0.20;;;;;;;18.00;83.21;101033.34;4972579;28;20507;-52
2022/07/10 01:01:18;;;;;;;0.40;0.20;;;;;;;17.58;84.52;101039.72;4966507;28;20472;-52
2022/07/10 01:03:46;;;;;;;0.40;0.20;;;;;;;17.88;83.77;101045.53;4961711;28;20461;-51
2022/07/10 01:06:14;;;;;;;0.40;0.20;;;;;;;17.85;82.96;101045.69;4973919;28;20493;-53
2022/07/10 01:08:41;;;;;;;0.40;0.20;;;;;;;17.90;82.71;101034.69;4974540;28;20480;-52
2022/07/10 01:11:08;;;;;;;0.40;0.20;;;;;;;18.07;81.74;101026.69;4973811;28;20454;-52
2022/07/10 01:13:35;;;;;;;0.40;0.20;;;;;;;18.41;79.98;101025.94;4961276;28;20457;-52
2022/07/10 01:16:02;;;;;;;0.40;0.20;;;;;;;18.11;80.46;101019.38;4974059;28;20896;-53
2022/07/10 01:18:29;;;;;;;0.40;0.20;;;;;;;18.27;80.34;101020.38;4961413;28;20843;-52
2022/07/10 01:20:56;;;;;;;0.40;0.20;;;;;;;18.14;80.48;101020.09;4973876;28;20454;-51
2022/07/10 01:23:23;;;;;;;0.40;0.20;;;;;;;17.86;81.85;101020.53;4961258;28;20451;-52
2022/07/10 01:25:50;;;;;;;0.40;0.20;;;;;;;18.23;80.34;101018.78;4973476;28;21007;-52
2022/07/10 01:28:17;;;;;;;0.40;0.20;;;;;;;17.85;81.79;101026.84;4973566;28;20478;-52
2022/07/10 01:30:44;;;;;;;0.40;0.20;;;;;;;17.66;82.93;101025.91;4973866;28;20464;-52
2022/07/10 01:33:10;;;;;;;0.40;0.20;;;;;;;17.58;82.68;101025.41;4961260;28;20450;-52
2022/07/10 01:35:37;;;;;;;0.40;0.20;;;;;;;17.62;82.60;101027.00;4960867;28;20872;-52
2022/07/10 01:38:04;;;;;;;0.40;0.20;;;;;;;17.99;81.38;101027.09;4973269;28;21003;-52
2022/07/10 01:40:30;;;;;;;0.40;0.20;;;;;;;17.71;81.43;101032.00;4973620;28;20455;-53
2022/07/10 01:42:58;;;;;;;0.40;0.20;;;;;;;17.79;82.01;101026.25;4954430;28;20828;-51
2022/07/10 01:45:25;;;;;;;0.40;0.20;;;;;;;17.91;81.54;101033.75;4973429;28;20490;-53
2022/07/10 01:47:52;;;;;;;0.40;0.20;;;;;;;17.61;82.00;101028.81;4973569;28;20474;-53
2022/07/10 01:50:18;;;;;;;0.40;0.20;;;;;;;17.63;81.92;101029.63;4972643;28;20549;-51
2022/07/10 01:52:45;;;;;;;0.40;0.20;;;;;;;17.40;83.74;101032.47;4961690;28;20687;-53
2022/07/10 01:55:11;;;;;;;0.40;0.20;;;;;;;17.55;82.09;101025.56;4975315;28;20461;-52
2022/07/10 01:57:38;;;;;;;0.40;0.20;;;;;;;17.28;83.25;101033.91;4973604;28;20478;-52
2022/07/10 02:00:05;;;;;;;0.40;0.20;;;;;;;17.35;82.83;101035.38;4970522;28;20450;-52
2022/07/10 02:02:31;;;;;;;0.40;0.20;;;;;;;17.25;83.03;101031.34;4960201;28;20827;-52
2022/07/10 02:04:58;;;;;;;0.40;0.20;;;;;;;17.12;83.87;101030.13;4967130;28;20522;-53
2022/07/10 02:07:26;;;;;;;0.40;0.30;;;;;;;17.37;82.58;101040.69;4962574;28;20478;-53
2022/07/10 02:09:52;;;;;;;0.40;0.20;;;;;;;17.44;82.78;101044.84;4971283;28;20459;-53
2022/07/10 02:12:19;;;;;;;0.40;0.20;;;;;;;17.14;83.61;101042.59;4962724;28;20456;-52
2022/07/10 02:14:45;;;;;;;0.40;0.20;;;;;;;17.16;83.64;101042.53;4973692;28;20450;-53
2022/07/10 02:17:12;;;;;;;0.40;0.20;;;;;;;17.14;84.35;101047.09;4974589;28;20839;-52
2022/07/10 02:19:38;;;;;;;0.40;0.20;;;;;;;17.29;82.89;101041.03;4975487;28;20477;-53
2022/07/10 02:22:05;;;;;;;0.40;0.20;;;;;;;16.92;83.81;101046.25;4964595;28;20466;-52
2022/07/10 02:24:31;;;;;;;0.40;0.20;;;;;;;16.91;83.45;101050.75;4969222;28;20450;-53
2022/07/10 02:26:58;;;;;;;0.40;0.20;;;;;;;16.83;83.57;101042.13;4973558;28;20461;-52
2022/07/10 02:29:24;;;;;;;0.40;0.20;;;;;;;17.04;83.06;101035.88;4973444;28;20461;-52
2022/07/10 02:31:51;;;;;;;0.40;0.20;;;;;;;16.88;83.71;101035.66;4964209;28;20463;-52
2022/07/10 02:34:18;;;;;;;0.40;0.20;;;;;;;16.96;82.63;101040.69;4966669;28;20454;-52
2022/07/10 02:36:44;;;;;;;0.40;0.20;;;;;;;17.06;82.43;101049.22;4962713;28;20836;-53
2022/07/10 02:39:10;;;;;;;0.40;0.20;;;;;;;16.92;83.08;101054.31;4970520;28;20930;-51
2022/07/10 02:41:37;;;;;;;0.40;0.20;;;;;;;16.88;83.08;101043.72;4969787;28;20541;-52
2022/07/10 02:44:04;;;;;;;0.40;0.20;;;;;;;16.86;83.20;101050.97;4970347;28;20469;-52
2022/07/10 02:46:30;;;;;;;0.40;0.20;;;;;;;16.81;83.27;101055.63;4967828;28;20485;-52
2022/07/10 02:48:57;;;;;;;0.40;0.20;;;;;;;16.80;82.88;101048.50;4960491;28;20840;-49
2022/07/10 02:51:23;;;;;;;0.40;0.20;;;;;;;17.01;82.83;101044.06;4966525;28;20947;-50
2022/07/10 02:53:49;;;;;;;0.40;0.20;;;;;;;17.11;81.83;101047.19;4976791;28;20445;-50
2022/07/10 02:56:16;;;;;;;0.40;0.20;;;;;;;17.01;82.66;101045.88;4975345;28;20541;-50
2022/07/10 02:58:42;;;;;;;0.40;0.20;;;;;;;17.21;81.75;101043.19;4960110;28;20484;-50
2022/07/10 03:01:09;;;;;;;0.40;0.20;;;;;;;16.95;82.90;101048.81;4972227;28;20804;-50
2022/07/10 03:03:35;;;;;;;0.40;0.20;;;;;;;17.03;82.15;101052.91;4969804;28;20534;-50
2022/07/10 03:06:02;;;;;;;0.40;0.20;;;;;;;16.92;82.52;101048.94;4971300;28;20494;-50
2022/07/10 03:08:29;;;;;;;0.40;0.20;;;;;;;16.85;82.73;101051.88;4972778;28;20474;-51
2022/07/10 03:10:55;;;;;;;0.40;0.30;;;;;;;16.88;82.46;101056.25;4962497;28;20461;-50
2022/07/10 03:13:22;;;;;;;0.40;0.20;;;;;;;16.84;82.49;101060.00;4974074;28;20456;-51
2022/07/10 03:15:48;;;;;;;0.40;0.20;;;;;;;16.74;82.61;101054.16;4976416;28;20965;-50
2022/07/10 03:18:15;;;;;;;0.40;0.20;;;;;;;16.63;83.74;101064.44;4963693;28;20476;-50
2022/07/10 03:20:41;;;;;;;0.40;0.20;;;;;;;16.79;84.05;101059.31;4977100;28;20800;-50
2022/07/10 03:23:07;;;;;;;0.40;0.20;;;;;;;17.02;81.71;101066.41;4976300;28;20462;-50
2022/07/10 03:25:34;;;;;;;0.40;0.20;;;;;;;17.04;81.53;101069.91;4975819;28;20484;-49
2022/07/10 03:28:00;;;;;;;0.40;0.20;;;;;;;16.97;81.48;101061.22;4963687;28;20470;-48
2022/07/10 03:30:27;;;;;;;0.40;0.20;;;;;;;16.58;83.44;101066.41;4976522;28;20498;-49
2022/07/10 03:32:53;;;;;;;0.40;0.20;;;;;;;16.32;84.85;101066.63;4963149;28;20465;-49
2022/07/10 03:35:20;;;;;;;0.40;0.20;;;;;;;16.50;83.54;101068.56;4966837;28;20463;-51
2022/07/10 03:37:46;;;;;;;0.40;0.20;;;;;;;16.33;83.98;101069.22;4976369;28;20484;-49
2022/07/10 03:40:13;;;;;;;0.40;0.20;;;;;;;16.64;81.96;101076.03;4976668;28;20450;-49
2022/07/10 03:42:39;;;;;;;0.40;0.20;;;;;;;16.61;81.73;101078.84;4976606;28;20480;-49
2022/07/10 03:45:06;;;;;;;0.40;0.20;;;;;;;16.49;83.09;101070.34;4976400;28;20490;-50
2022/07/10 03:47:32;;;;;;;0.40;0.20;;;;;;;16.53;81.88;101065.72;4963331;28;20478;-49
2022/07/10 03:49:59;;;;;;;0.40;0.20;;;;;;;16.40;82.46;101065.34;4976397;28;20458;-49
2022/07/10 03:52:25;;;;;;;0.40;0.20;;;;;;;16.07;83.66;101075.63;4967712;28;20479;-48
2022/07/10 03:54:54;;;;;;;0.40;0.20;;;;;;;15.93;84.73;101069.91;4978052;28;20454;-48
2022/07/10 04:00:06;;;;;;;0.40;0.20;;;;;;;16.09;84.48;101073.75;4974124;28;20451;-48
2022/07/10 04:02:32;;;;;;;0.40;0.20;;;;;;;16.04;84.02;101078.44;4969812;28;20956;-48
2022/07/10 04:04:59;;;;;;;0.40;0.20;;;;;;;16.15;84.24;101083.34;4972264;28;20461;-49
2022/07/10 04:07:25;;;;;;;0.47;0.20;;;;;;;16.56;82.11;101084.38;4975574;28;20474;-49
2022/07/10 04:09:52;;;;;;;0.40;0.20;;;;;;;16.36;82.40;101085.19;4976124;28;20820;-49
2022/07/10 04:12:18;;;;;;;0.40;0.20;;;;;;;16.36;82.16;101084.34;4975213;28;20461;-49
2022/07/10 04:14:44;;;;;;;0.40;0.20;;;;;;;16.47;81.20;101090.16;4974505;28;20458;-49
2022/07/10 04:17:11;;;;;;;0.40;0.20;;;;;;;16.70;81.25;101081.19;4970041;28;20474;-48
2022/07/10 04:19:37;;;;;;;0.40;0.20;;;;;;;16.45;81.92;101075.94;4973685;28;20462;-48
2022/07/10 04:22:04;;;;;;;0.40;0.20;;;;;;;16.50;81.81;101079.28;4973108;28;20454;-49
2022/07/10 04:24:30;;;;;;;0.40;0.20;;;;;;;16.89;80.58;101082.19;4972997;28;20836;-49
2022/07/10 04:26:57;;;;;;;0.40;0.20;;;;;;;16.67;80.55;101081.28;4958863;28;20482;-48
2022/07/10 04:29:23;;;;;;;0.40;0.20;;;;;;;16.71;80.96;101089.16;4970957;28;20458;-48
2022/07/10 04:31:50;;;;;;;0.40;0.20;;;;;;;16.33;82.01;101087.16;4976472;28;20468;-49
2022/07/10 04:34:16;;;;;;;0.40;0.20;;;;;;;16.16;83.18;101085.09;4975819;28;21039;-49
2022/07/10 04:36:43;;;;;;;0.40;0.20;;;;;;;16.22;83.63;101088.44;4964002;28;20462;-49
2022/07/10 04:39:09;;;;;;;0.40;0.20;;;;;;;16.71;80.87;101081.09;4975383;28;20461;-49
2022/07/10 04:41:36;;;;;;;0.40;0.20;;;;;;;18.43;74.35;101101.25;4975431;28;20454;-49
2022/07/10 04:44:03;;;;;;;0.40;0.20;;;;;;;18.47;72.97;101097.47;4975272;28;20446;-49
2022/07/10 04:46:29;;;;;;;0.40;0.20;;;;;;;19.42;69.15;101109.75;4975298;28;20497;-50
2022/07/10 04:48:56;;;;;;;0.40;0.20;;;;;;;19.27;69.18;101113.25;4974781;28;20563;-52
2022/07/10 04:51:23;;;;;;;0.40;0.20;;;;;;;18.28;73.00;101105.56;4975028;28;20822;-48
2022/07/10 04:53:49;;;;;;;0.40;0.20;;;;;;;18.22;73.49;101114.78;4978301;28;21012;-48
2022/07/10 04:56:16;;;;;;;0.40;0.20;;;;;;;17.77;74.81;101118.66;4974318;28;20855;-48
2022/07/10 04:58:42;;;;;;;0.40;0.20;;;;;;;17.55;76.33;101119.66;4972058;28;20577;-48
2022/07/10 05:01:17;;;;;;;0.40;0.20;;;;;;;17.91;74.96;101123.41;4974859;28;20460;-49
2022/07/10 05:03:44;;;;;;;0.40;0.20;;;;;;;18.03;75.22;101117.47;4961836;28;20541;-49
2022/07/10 05:06:10;;;;;;;0.40;0.20;;;;;;;17.89;74.16;101122.59;4963691;28;20495;-49
2022/07/10 05:08:37;;;;;;;0.40;0.20;;;;;;;17.24;76.78;101120.97;4972633;28;20478;-49
2022/07/10 05:11:04;;;;;;;0.40;0.20;;;;;;;16.88;77.75;101113.53;4975011;28;20458;-49
2022/07/10 05:13:30;;;;;;;0.40;0.20;;;;;;;16.95;77.70;101116.81;4974817;28;20466;-49
2022/07/10 05:15:57;;;;;;;0.40;0.20;;;;;;;17.16;76.75;101117.75;4975028;28;20454;-49
2022/07/10 05:18:23;;;;;;;0.40;0.20;;;;;;;16.85;78.28;101112.75;4974624;28;20498;-50
2022/07/10 05:20:50;;;;;;;0.40;0.20;;;;;;;16.76;78.51;101121.22;4974648;28;20487;-48
2022/07/10 05:23:17;;;;;;;0.40;0.20;;;;;;;16.95;78.39;101113.25;4974103;28;20458;-49
2022/07/10 05:25:43;;;;;;;0.40;0.20;;;;;;;18.10;74.60;101112.69;4974683;28;20494;-48
2022/07/10 05:28:10;;;;;;;0.40;0.20;;;;;;;18.41;72.17;101125.56;4974532;28;20822;-48
2022/07/10 05:30:36;;;;;;;0.40;0.20;;;;;;;18.16;72.23;101119.59;4974473;28;20458;-48
2022/07/10 05:33:02;;;;;;;0.40;0.20;;;;;;;18.23;72.45;101118.38;4974632;28;20454;-48
2022/07/10 05:35:29;;;;;;;0.40;0.20;;;;;;;18.03;73.68;101119.28;4961226;28;20456;-49
2022/07/10 05:37:56;;;;;;;0.40;0.20;;;;;;;18.75;70.73;101126.66;4973369;28;21006;-48
2022/07/10 05:40:22;;;;;;;0.40;0.20;;;;;;;19.15;69.28;101126.41;4974500;28;20453;-49
2022/07/10 05:42:49;;;;;;;0.40;0.20;;;;;;;19.48;66.51;101134.59;4974287;28;20454;-48
2022/07/10 05:45:16;;;;;;;0.40;0.20;;;;;;;19.45;66.66;101132.03;4973797;28;20455;-49
2022/07/10 05:47:42;;;;;;;0.40;0.20;;;;;;;20.31;63.83;101139.16;4974021;28;20845;-48
2022/07/10 05:50:09;;;;;;;0.40;0.20;;;;;;;20.63;62.04;101131.97;4974251;28;20454;-48
2022/07/10 05:52:35;;;;;;;0.40;0.20;;;;;;;20.21;62.01;101137.91;4974122;28;20828;-48
2022/07/10 05:55:02;;;;;;;0.40;0.20;;;;;;;19.69;63.61;101137.16;4987215;28;20820;-49
2022/07/10 05:57:32;;;;;;;0.40;0.20;;;;;;;19.60;63.49;101125.03;4961245;28;20476;-49
2022/07/10 05:59:58;;;;;;;0.40;0.20;;;;;;;18.66;67.35;101124.41;4973729;28;20480;-48
2022/07/10 06:02:25;;;;;;;0.40;0.20;;;;;;;19.03;65.25;101123.47;4966581;28;20944;-48
2022/07/10 06:04:52;;;;;;;0.40;0.20;;;;;;;19.34;62.94;101120.97;4967299;28;20482;-48
2022/07/10 06:07:19;;;;;;;0.40;0.20;;;;;;;20.12;60.01;101123.09;4961805;28;20501;-48
2022/07/10 06:09:45;;;;;;;0.40;0.20;;;;;;;19.89;61.05;101128.00;4973823;28;20500;-48
2022/07/10 06:12:11;;;;;;;0.40;0.20;;;;;;;19.92;61.24;101125.13;4974007;28;20952;-48
2022/07/10 06:14:38;;;;;;;0.40;0.20;;;;;;;20.33;59.60;101131.84;4974161;28;20454;-48
2022/07/10 06:17:04;;;;;;;0.40;0.20;;;;;;;20.70;57.28;101121.69;4973685;28;20477;-48
2022/07/10 06:19:31;;;;;;;0.40;0.20;;;;;;;20.59;57.14;101126.84;4973163;28;20834;-49
2022/07/10 06:24:42;;;;;;;0.40;0.20;;;;;;;20.22;58.88;101134.25;4973630;28;20446;-48
2022/07/10 06:27:09;;;;;;;0.40;0.20;;;;;;;19.37;60.60;101133.41;4973665;28;20531;-48
2022/07/10 06:29:35;;;;;;;0.40;0.20;;;;;;;20.47;59.31;101133.81;4973366;28;20465;-49
2022/07/10 06:32:02;;;;;;;0.40;0.20;;;;;;;20.30;57.75;101137.41;4973126;28;20461;-48
2022/07/10 06:34:28;;;;;;;0.40;0.20;;;;;;;20.75;57.18;101130.41;4969578;28;20451;-49
2022/07/10 06:36:55;;;;;;;0.40;0.20;;;;;;;20.65;56.45;101137.28;4964732;28;20446;-48
2022/07/10 06:39:22;;;;;;;0.40;0.20;;;;;;;20.58;56.21;101139.47;4973394;28;20542;-48
2022/07/10 06:41:49;;;;;;;0.40;0.20;;;;;;;20.55;56.74;101142.31;4973242;28;20458;-48
2022/07/10 06:44:15;;;;;;;0.40;0.20;;;;;;;20.13;58.32;101134.75;4973224;28;20824;-49
2022/07/10 06:46:42;;;;;;;0.40;0.20;;;;;;;19.94;56.76;101142.13;4976184;28;20494;-49
2022/07/10 06:49:08;;;;;;;0.40;0.20;;;;;;;19.79;56.15;101144.69;4980792;28;20474;-49
2022/07/10 06:51:35;;;;;;;0.40;0.20;;;;;;;20.15;55.26;101146.38;4977717;28;20461;-49
2022/07/10 06:54:02;;;;;;;0.40;0.20;;;;;;;20.10;56.33;101145.72;4982082;28;20934;-49
2022/07/10 06:56:28;;;;;;;0.40;0.20;;;;;;;20.08;55.27;101148.50;4973342;28;20554;-48
2022/07/10 06:58:55;;;;;;;0.40;0.20;;;;;;;19.49;57.27;101146.25;4976078;28;20561;-49
2022/07/10 07:01:21;;;;;;;0.40;0.20;;;;;;;19.68;57.68;101132.72;4976864;28;20473;-49
2022/07/10 07:03:48;;;;;;;0.40;0.20;;;;;;;19.71;58.29;101128.00;4963837;28;20959;-48
2022/07/10 07:06:14;;;;;;;0.40;0.20;;;;;;;19.80;56.51;101126.66;4964738;28;20510;-49
2022/07/10 07:08:42;;;;;;;0.40;0.20;;;;;;;19.71;56.77;101125.31;4976176;28;20480;-48
2022/07/10 07:11:09;;;;;;;0.40;0.20;;;;;;;19.52;57.00;101116.44;4976749;28;20494;-50
2022/07/10 07:13:35;;;;;;;0.40;0.20;;;;;;;20.06;56.53;101114.47;4976865;28;20806;-49
2022/07/10 07:16:06;;;;;;;0.40;0.20;;;;;;;20.81;53.06;101115.66;4977064;28;20777;-49
2022/07/10 07:18:35;;;;;;;0.40;0.20;;;;;;;20.38;53.76;101124.34;4957464;28;20479;-49
2022/07/10 07:23:47;;;;;;;0.40;0.20;;;;;;;20.08;52.68;101124.22;4977032;28;20446;-48
2022/07/10 07:26:13;;;;;;;0.40;0.20;;;;;;;19.54;53.90;101128.00;4976371;28;20496;-48
2022/07/10 07:28:40;;;;;;;0.40;0.20;;;;;;;19.73;54.25;101123.41;4976798;28;20478;-48
2022/07/10 07:31:07;;;;;;;0.40;0.20;;;;;;;19.55;56.16;101132.47;4977005;28;20465;-48
2022/07/10 07:33:40;;;;;;;0.40;0.20;;;;;;;19.64;54.70;101131.13;4976646;28;20458;-49
2022/07/10 07:36:07;;;;;;;0.40;0.20;;;;;;;19.53;55.71;101135.22;4963472;28;20461;-49
2022/07/10 07:38:33;;;;;;;0.40;0.20;;;;;;;19.64;56.32;101145.50;4976632;28;20477;-49
2022/07/10 07:41:00;;;;;;;0.40;0.20;;;;;;;19.91;56.34;101142.28;4976622;28;20450;-49
2022/07/10 07:43:27;;;;;;;0.40;0.20;;;;;;;20.12;53.64;101133.00;4976333;28;20450;-48
2022/07/10 07:45:53;;;;;;;0.40;0.20;;;;;;;20.01;53.29;101141.72;4976655;28;20449;-48
2022/07/10 07:48:20;;;;;;;0.40;0.20;;;;;;;20.06;53.36;101134.22;4976769;28;20474;-48
2022/07/10 07:50:46;;;;;;;0.40;0.20;;;;;;;19.84;53.99;101141.72;4976286;28;20978;-49
2022/07/10 07:53:13;;;;;;;0.40;0.20;;;;;;;19.74;53.75;101144.06;4976513;28;20485;-48
2022/07/10 07:55:39;;;;;;;0.40;0.20;;;;;;;19.34;53.75;101147.06;4984421;28;20447;-48
2022/07/10 07:58:06;;;;;;;0.40;0.20;;;;;;;19.35;54.73;101146.09;4967581;28;20470;-49
2022/07/10 08:00:33;;;;;;;0.40;0.20;;;;;;;19.63;54.98;101138.34;4975710;28;20462;-48
2022/07/10 08:03:00;;;;;;;0.40;0.20;;;;;;;19.08;55.97;101146.53;4964816;28;20554;-49
2022/07/10 08:05:28;;;;;;;0.40;0.20;;;;;;;19.08;56.23;101145.69;4969723;28;20482;-48
2022/07/10 08:07:57;;;;;;;0.40;0.20;;;;;;;19.16;55.52;101144.31;4968099;28;20489;-49
2022/07/10 08:10:26;;;;;;;0.40;0.20;;;;;;;19.55;54.85;101142.41;4975585;28;20461;-50
2022/07/10 08:12:52;;;;;;;0.40;0.20;;;;;;;19.52;54.89;101141.56;4975780;28;20461;-48
2022/07/10 08:15:23;;;;;;;0.40;0.20;;;;;;;18.97;53.96;101145.34;4975658;28;20464;-48
2022/07/10 08:17:52;;;;;;;0.40;0.20;;;;;;;19.41;53.32;101143.06;4975744;28;20526;-48
2022/07/10 08:20:19;;;;;;;0.40;0.20;;;;;;;19.45;52.95;101140.13;4975390;28;20458;-48
2022/07/10 08:22:46;;;;;;;0.40;0.20;;;;;;;19.72;53.67;101137.84;4975257;28;20970;-49
2022/07/10 08:25:13;;;;;;;0.40;0.20;;;;;;;19.62;52.45;101144.72;4975701;28;20454;-48
2022/07/10 08:27:39;;;;;;;0.40;0.20;;;;;;;19.62;52.64;101146.53;4975172;28;20864;-48
2022/07/10 08:30:08;;;;;;;0.40;0.20;;;;;;;19.91;53.75;101145.84;4975587;28;20466;-48
2022/07/10 08:32:36;;;;;;;0.40;0.20;;;;;;;19.99;53.15;101143.59;4975395;28;21019;-48
2022/07/10 08:35:04;;;;;;;0.40;0.20;;;;;;;19.57;54.72;101143.19;4966946;28;21008;-48
2022/07/10 08:37:37;;;;;;;0.40;0.20;;;;;;;19.42;55.62;101147.50;4971030;28;20470;-48
2022/07/10 08:40:04;;;;;;;0.40;0.20;;;;;;;19.20;55.17;101137.84;4976045;28;20446;-47
2022/07/10 08:42:32;;;;;;;1.50;1.50;;;;;;;20.20;53.93;101128.06;4975739;28;20529;-49
2022/07/10 08:44:59;;;;;;;0.40;0.20;;;;;;;20.18;53.76;101130.00;4975459;28;20887;-49
2022/07/10 08:47:27;;;;;;;0.40;0.20;;;;;;;20.25;55.17;101123.28;4975064;28;20494;-48
2022/07/10 08:49:53;;;;;;;0.40;0.20;;;;;;;21.07;51.78;101120.41;4975794;28;20450;-48
2022/07/10 08:52:42;;;;;;;0.60;0.60;;;;;;;21.37;50.56;101122.28;4974981;28;20940;-48
2022/07/10 08:55:13;;;;;;;0.40;0.20;;;;;;;21.24;50.43;101108.59;4987633;28;20441;-48
2022/07/10 08:57:42;;;;;;;0.40;0.20;;;;;;;21.09;51.54;101117.63;4963619;28;20470;-48
2022/07/10 09:00:09;;;;;;;0.40;0.20;;;;;;;20.72;52.53;101114.38;4974944;28;20951;-48
2022/07/10 09:02:36;;;;;;;0.40;0.20;;;;;;;20.83;52.50;101116.44;4967562;28;21048;-50
2022/07/10 09:05:05;;;;;;;0.40;0.20;;;;;;;21.10;52.18;101117.53;4971653;28;20537;-48
2022/07/10 09:07:40;;;;;;;0.40;0.20;;;;;;;21.03;52.77;101110.75;4964427;28;20494;-49
2022/07/10 09:10:08;;;;;;;0.40;0.20;;;;;;;20.97;52.55;101111.13;4973346;28;20460;-49
2022/07/10 09:12:49;;;;;;;0.40;0.20;;;;;;;20.52;54.05;101109.22;4974724;28;20458;-48
2022/07/10 09:15:17;;;;;;;0.40;0.20;;;;;;;20.88;52.88;101104.41;4974839;28;20456;-48
2022/07/10 09:17:55;;;;;;;0.40;0.20;;;;;;;21.49;51.92;101110.72;4974428;28;20476;-51
2022/07/10 09:20:34;;;;;;;0.40;0.20;;;;;;;21.98;48.64;101099.56;4974725;28;20446;-48
2022/07/10 09:23:22;;;;;;;0.40;0.20;;;;;;;20.97;51.04;101101.19;4974344;28;20457;-48
2022/07/10 09:25:51;;;;;;;0.40;0.20;;;;;;;21.48;50.26;101103.56;4974335;28;20641;-48
2022/07/10 09:28:22;;;;;;;0.40;0.20;;;;;;;21.87;50.68;101108.38;4974485;28;20494;-48
2022/07/10 09:30:49;;;;;;;0.40;0.20;;;;;;;21.84;50.67;101109.44;4974351;28;20541;-48
2022/07/10 09:33:23;;;;;;;0.40;0.20;;;;;;;21.23;51.85;101107.72;4974469;28;20545;-48
2022/07/10 09:36:04;;;;;;;0.50;0.43;;;;;;;21.36;51.57;101097.06;4961051;28;20466;-48
2022/07/10 09:38:43;;;;;;;0.40;0.20;;;;;;;21.72;51.39;101090.38;4974478;28;20466;-49
2022/07/10 09:41:19;;;;;;;0.40;0.20;;;;;;;21.62;51.64;101095.47;4974192;28;20451;-48
2022/07/10 09:43:52;;;;;;;0.40;0.20;;;;;;;21.41;52.03;101094.09;4973812;28;20452;-48
2022/07/10 09:46:21;;;;;;;0.40;0.20;;;;;;;21.40;52.35;101092.38;4974272;28;20461;-48
2022/07/10 09:49:00;;;;;;;0.40;0.20;;;;;;;21.84;51.00;101092.31;4973984;28;20876;-48
2022/07/10 09:51:31;;;;;;;0.40;0.20;;;;;;;21.51;50.58;101092.56;4974105;28;20450;-48
2022/07/10 09:54:00;;;;;;;0.40;0.20;;;;;;;22.05;49.32;101081.97;4978554;28;20549;-49
2022/07/10 09:56:30;;;;;;;0.40;0.20;;;;;;;22.29;49.88;101077.72;4970468;28;20938;-48
2022/07/10 09:59:00;;;;;;;0.40;0.20;;;;;;;22.21;50.28;101090.03;4972779;28;20470;-49
2022/07/10 10:01:27;;;;;;;0.40;0.20;;;;;;;22.05;50.27;101087.38;4974075;28;20458;-49
2022/07/10 10:03:58;;;;;;;0.40;0.20;;;;;;;22.56;48.10;101094.00;4960941;28;20454;-48
2022/07/10 10:06:28;;;;;;;0.40;0.20;;;;;;;22.58;48.07;101086.66;4960800;28;20825;-49
2022/07/10 10:09:07;;;;;;;0.40;0.20;;;;;;;22.87;47.34;101079.31;4973491;28;20892;-48
2022/07/10 10:11:36;;;;;;;0.40;0.20;;;;;;;22.68;48.52;101082.38;4973776;28;20457;-49
2022/07/10 10:14:06;;;;;;;0.40;0.20;;;;;;;22.52;48.73;101088.91;4973888;28;20472;-48
2022/07/10 10:16:33;;;;;;;0.40;0.20;;;;;;;22.87;48.06;101086.59;4973605;28;20453;-48
2022/07/10 10:21:49;;;;;;;0.40;0.20;;;;;;;22.62;48.04;101079.22;4953617;28;20455;-49
2022/07/10 10:24:17;;;;;;;0.40;0.20;;;;;;;22.80;47.86;101074.38;4968111;28;20454;-48
2022/07/10 10:26:45;;;;;;;0.40;0.20;;;;;;;22.97;46.40;101082.28;4972123;28;20992;-48
2022/07/10 10:29:12;;;;;;;0.40;0.20;;;;;;;22.24;48.93;101077.16;4973464;28;20455;-49
2022/07/10 10:31:39;;;;;;;0.40;0.20;;;;;;;22.56;48.30;101079.59;4972921;28;20457;-49
2022/07/10 10:34:06;;;;;;;0.40;0.20;;;;;;;23.05;46.82;101069.97;4971679;28;20458;-49
2022/07/10 10:36:44;;;;;;;0.40;0.20;;;;;;;22.84;46.13;101062.41;4962105;28;20480;-49
2022/07/10 10:39:13;;;;;;;0.40;0.30;;;;;;;22.89;47.31;101063.84;4973618;28;20470;-48
2022/07/10 10:41:42;;;;;;;0.40;0.20;;;;;;;23.00;46.96;101065.81;4973532;28;20536;-49
2022/07/10 10:44:09;;;;;;;0.40;0.20;;;;;;;22.84;46.91;101059.69;4973150;28;20473;-49
2022/07/10 10:46:53;;;;;;;0.40;0.20;;;;;;;22.93;46.85;101048.22;4973323;28;20460;-49
2022/07/10 10:49:22;;;;;;;0.40;0.20;;;;;;;22.91;47.42;101042.03;4973529;28;20457;-49
2022/07/10 10:51:59;;;;;;;0.40;0.20;;;;;;;23.16;46.58;101033.06;4973204;28;20473;-49
2022/07/10 10:54:30;;;;;;;0.40;0.20;;;;;;;23.11;46.24;101044.25;4981080;28;20452;-49
2022/07/10 10:57:14;;;;;;;0.40;0.20;;;;;;;23.35;45.17;101031.69;4964554;28;20489;-49
2022/07/10 10:59:52;;;;;;;0.40;0.20;;;;;;;23.25;45.55;101032.44;4973218;28;20450;-49
2022/07/10 11:02:22;;;;;;;0.40;0.20;;;;;;;23.49;44.98;101027.13;4967040;28;20460;-50
2022/07/10 11:05:18;;;;;;;0.40;0.20;;;;;;;23.55;45.23;101022.13;4981074;28;20497;-50
2022/07/10 11:07:58;;;;;;;0.40;0.20;;;;;;;22.99;45.69;101043.22;4964606;28;20529;-49
2022/07/10 11:10:27;;;;;;;0.40;0.20;;;;;;;23.32;45.44;101025.63;4973311;28;20458;-49
2022/07/10 11:13:07;;;;;;;0.40;0.20;;;;;;;23.06;45.92;101027.44;4972889;28;20469;-49
2022/07/10 11:15:43;;;;;;;0.40;0.20;;;;;;;23.43;45.47;101028.44;4973027;28;20442;-49
2022/07/10 11:18:13;;;;;;;0.40;0.20;;;;;;;23.56;45.63;101029.28;4974625;28;20474;-49
2022/07/10 11:20:49;;;;;;;0.40;0.20;;;;;;;23.50;45.66;101015.31;4974114;28;20461;-49
2022/07/10 11:23:33;;;;;;;0.40;0.20;;;;;;;23.86;44.93;101028.13;4972795;28;20450;-49
2022/07/10 11:26:11;;;;;;;0.40;0.30;;;;;;;23.83;44.82;101020.19;4973128;28;20454;-49
2022/07/10 11:28:43;;;;;;;0.40;0.30;;;;;;;23.94;43.81;101014.84;4972977;28;20647;-48
2022/07/10 11:31:10;;;;;;;0.40;0.20;;;;;;;24.16;44.92;101015.03;4972676;28;20982;-49
2022/07/10 11:33:44;;;;;;;0.40;0.20;;;;;;;23.91;45.48;101015.94;4974878;28;20478;-49
2022/07/10 11:36:13;;;;;;;0.40;0.20;;;;;;;23.74;45.36;101023.59;4963018;28;20458;-49
2022/07/10 11:38:42;;;;;;;0.40;0.20;;;;;;;23.28;45.94;101019.50;4976375;28;20502;-49